createdAt,value
2018-05-04T00:00:13.110Z,49.86
2018-05-04T00:00:53.642Z,49.67
2018-05-04T00:01:34.160Z,49.96
2018-05-04T00:02:14.684Z,49.96
2018-05-04T00:02:55.212Z,49.86
2018-05-04T00:03:35.733Z,50.15
2018-05-04T00:04:16.262Z,50.05
2018-05-04T00:04:56.795Z,50.63
2018-05-04T00:05:37.323Z,50.15
2018-05-04T00:06:17.842Z,50.05
2018-05-04T00:06:58.370Z,50.05
2018-05-04T00:07:38.892Z,50.05
2018-05-04T00:08:19.411Z,50.05
2018-05-04T00:09:00.866Z,50.05
2018-05-04T00:09:41.414Z,50.05
2018-05-04T00:10:21.941Z,50.05
2018-05-04T00:11:02.477Z,50.15
2018-05-04T00:11:42.987Z,50.05
2018-05-04T00:12:23.506Z,50.05
2018-05-04T00:13:04.042Z,50.15
2018-05-04T00:13:44.565Z,50.05
2018-05-04T00:14:25.090Z,49.86
2018-05-04T00:15:05.621Z,49.86
2018-05-04T00:15:46.145Z,49.86
2018-05-04T00:16:26.657Z,49.86
2018-05-04T00:17:07.182Z,49.86
2018-05-04T00:17:47.711Z,49.76
2018-05-04T00:18:28.242Z,49.76
2018-05-04T00:19:08.775Z,50.05
2018-05-04T00:19:49.293Z,49.96
2018-05-04T00:20:29.817Z,49.86
2018-05-04T00:21:10.327Z,49.86
2018-05-04T00:21:50.830Z,49.86
2018-05-04T00:22:32.261Z,49.67
2018-05-04T00:23:12.747Z,50.05
2018-05-04T00:23:53.234Z,50.05
2018-05-04T00:24:33.730Z,50.05
2018-05-04T00:25:14.230Z,50.15
2018-05-04T00:25:54.705Z,50.05
2018-05-04T00:26:35.213Z,50.15
2018-05-04T00:27:15.748Z,49.86
2018-05-04T00:27:56.265Z,49.96
2018-05-04T00:28:36.792Z,49.67
2018-05-04T00:29:17.325Z,49.67
2018-05-04T00:29:57.851Z,49.86
2018-05-04T00:30:38.383Z,49.57
2018-05-04T00:31:18.915Z,50.24
2018-05-04T00:31:59.453Z,50.24
2018-05-04T00:32:39.981Z,50.15
2018-05-04T00:33:20.513Z,50.05
2018-05-04T00:34:01.039Z,49.86
2018-05-04T00:34:41.557Z,50.05
2018-05-04T00:35:22.854Z,49.76
2018-05-04T00:36:02.663Z,49.86
2018-05-04T00:36:43.985Z,49.67
2018-05-04T00:37:24.508Z,49.76
2018-05-04T00:38:05.040Z,49.67
2018-05-04T00:38:45.564Z,50.05
2018-05-04T00:39:26.090Z,49.96
2018-05-04T00:40:06.619Z,49.96
2018-05-04T00:40:47.141Z,49.96
2018-05-04T00:41:27.671Z,49.86
2018-05-04T00:42:08.202Z,49.76
2018-05-04T00:42:48.727Z,50.05
2018-05-04T00:43:29.252Z,49.76
2018-05-04T00:44:09.787Z,50.15
2018-05-04T00:44:50.313Z,49.96
2018-05-04T00:45:30.823Z,49.96
2018-05-04T00:46:11.354Z,49.76
2018-05-04T00:46:51.885Z,49.76
2018-05-04T00:47:32.409Z,49.96
2018-05-04T00:48:12.927Z,49.76
2018-05-04T00:48:53.456Z,50.05
2018-05-04T00:49:33.983Z,50.05
2018-05-04T00:50:14.517Z,49.96
2018-05-04T00:50:55.039Z,50.15
2018-05-04T00:51:35.556Z,50.05
2018-05-04T00:52:16.092Z,49.96
2018-05-04T00:52:57.357Z,50.05
2018-05-04T00:53:37.120Z,50.05
2018-05-04T00:54:17.634Z,49.96
2018-05-04T00:54:58.196Z,49.96
2018-05-04T00:55:38.687Z,49.96
2018-05-04T00:56:19.201Z,50.05
2018-05-04T00:56:59.715Z,49.96
2018-05-04T00:57:40.234Z,49.96
2018-05-04T00:58:20.752Z,49.96
2018-05-04T00:59:02.042Z,49.76
2018-05-04T00:59:42.558Z,49.86
2018-05-04T01:00:23.085Z,49.67
2018-05-04T01:01:04.141Z,49.96
2018-05-04T01:01:44.654Z,50.05
2018-05-04T01:02:25.171Z,50.22
2018-05-04T01:03:05.700Z,50.24
2018-05-04T01:03:46.200Z,50.22
2018-05-04T01:04:26.705Z,50.12
2018-05-04T01:05:07.208Z,50.22
2018-05-04T01:05:47.733Z,50.53
2018-05-04T01:06:28.864Z,50.24
2018-05-04T01:07:08.765Z,50.22
2018-05-04T01:07:49.294Z,50.51
2018-05-04T01:08:29.825Z,50.51
2018-05-04T01:09:10.349Z,50.32
2018-05-04T01:09:50.868Z,50.51
2018-05-04T01:10:31.389Z,50.41
2018-05-04T01:11:11.927Z,50.12
2018-05-04T01:11:52.446Z,50.41
2018-05-04T01:12:32.970Z,50.6
2018-05-04T01:13:13.494Z,50.41
2018-05-04T01:13:54.016Z,50.32
2018-05-04T01:14:34.549Z,50.32
2018-05-04T01:15:15.069Z,50.41
2018-05-04T01:15:55.595Z,50.51
2018-05-04T01:16:36.126Z,50.51
2018-05-04T01:17:16.649Z,50.51
2018-05-04T01:17:57.178Z,50.51
2018-05-04T01:18:37.704Z,50.6
2018-05-04T01:19:18.227Z,50.7
2018-05-04T01:19:59.369Z,50.7
2018-05-04T01:20:39.868Z,50.41
2018-05-04T01:21:19.777Z,50.79
2018-05-04T01:22:00.294Z,50.79
2018-05-04T01:22:40.795Z,50.6
2018-05-04T01:23:21.330Z,50.79
2018-05-04T01:24:01.853Z,50.7
2018-05-04T01:24:42.382Z,50.6
2018-05-04T01:25:22.887Z,50.7
2018-05-04T01:26:04.035Z,50.51
2018-05-04T01:26:44.526Z,50.6
2018-05-04T01:27:25.025Z,50.51
2018-05-04T01:28:05.560Z,50.32
2018-05-04T01:28:46.082Z,50.32
2018-05-04T01:29:26.617Z,50.32
2018-05-04T01:30:07.148Z,50.32
2018-05-04T01:30:47.679Z,50.51
2018-05-04T01:31:28.194Z,50.32
2018-05-04T01:32:08.716Z,50.51
2018-05-04T01:32:49.248Z,50.7
2018-05-04T01:33:29.775Z,50.6
2018-05-04T01:34:10.355Z,50.51
2018-05-04T01:34:51.703Z,50.51
2018-05-04T01:35:32.243Z,50.51
2018-05-04T01:36:12.773Z,50.32
2018-05-04T01:36:53.300Z,50.22
2018-05-04T01:37:33.823Z,50.48
2018-05-04T01:38:14.352Z,50.58
2018-05-04T01:38:54.881Z,50.58
2018-05-04T01:39:35.403Z,50.58
2018-05-04T01:40:15.923Z,50.48
2018-05-04T01:40:56.451Z,50.38
2018-05-04T01:41:36.992Z,50.38
2018-05-04T01:42:18.368Z,50.38
2018-05-04T01:42:57.986Z,50.48
2018-05-04T01:43:38.510Z,50.38
2018-05-04T01:44:19.031Z,50.29
2018-05-04T01:44:59.558Z,50.48
2018-05-04T01:45:40.081Z,50.38
2018-05-04T01:46:20.613Z,50.29
2018-05-04T01:47:01.143Z,50.1
2018-05-04T01:47:41.671Z,50.38
2018-05-04T01:48:22.202Z,50.38
2018-05-04T01:49:02.712Z,50.58
2018-05-04T01:49:43.235Z,50.77
2018-05-04T01:50:23.754Z,50.77
2018-05-04T01:51:04.264Z,50.29
2018-05-04T01:51:44.799Z,50.58
2018-05-04T01:52:25.870Z,50.58
2018-05-04T01:53:06.535Z,50.67
2018-05-04T01:53:47.067Z,50.58
2018-05-04T01:54:27.598Z,50.58
2018-05-04T01:55:08.132Z,50.77
2018-05-04T01:55:48.657Z,50.87
2018-05-04T01:56:29.181Z,50.48
2018-05-04T01:57:09.704Z,50.87
2018-05-04T01:57:50.225Z,50.65
2018-05-04T01:58:30.753Z,50.67
2018-05-04T01:59:11.277Z,50.46
2018-05-04T01:59:51.783Z,50.36
2018-05-04T02:00:32.290Z,50.65
2018-05-04T02:01:12.802Z,50.65
2018-05-04T02:01:53.340Z,50.56
2018-05-04T02:02:33.868Z,50.65
2018-05-04T02:03:14.382Z,50.67
2018-05-04T02:03:54.910Z,50.84
2018-05-04T02:04:35.431Z,50.74
2018-05-04T02:05:15.946Z,50.84
2018-05-04T02:05:56.454Z,50.74
2018-05-04T02:06:36.971Z,50.65
2018-05-04T02:07:17.505Z,50.84
2018-05-04T02:07:58.031Z,50.74
2018-05-04T02:08:38.558Z,51.03
2018-05-04T02:09:19.082Z,50.56
2018-05-04T02:10:00.106Z,50.65
2018-05-04T02:10:40.634Z,50.74
2018-05-04T02:11:21.169Z,50.74
2018-05-04T02:12:01.698Z,50.84
2018-05-04T02:12:42.221Z,50.74
2018-05-04T02:13:22.751Z,50.52
2018-05-04T02:14:03.278Z,50.93
2018-05-04T02:14:43.812Z,51.22
2018-05-04T02:15:24.331Z,51.1
2018-05-04T02:16:04.856Z,50.84
2018-05-04T02:16:45.396Z,51.22
2018-05-04T02:17:25.917Z,50.81
2018-05-04T02:18:06.438Z,51.2
2018-05-04T02:18:46.952Z,50.81
2018-05-04T02:19:27.482Z,51.22
2018-05-04T02:20:08.005Z,51.1
2018-05-04T02:20:48.534Z,51.13
2018-05-04T02:21:29.055Z,50.91
2018-05-04T02:22:09.606Z,50.91
2018-05-04T02:22:50.129Z,50.81
2018-05-04T02:23:30.641Z,51.1
2018-05-04T02:24:11.148Z,51.2
2018-05-04T02:24:51.678Z,50.91
2018-05-04T02:25:32.195Z,51.2
2018-05-04T02:26:12.706Z,51.1
2018-05-04T02:26:53.223Z,51.29
2018-05-04T02:27:33.745Z,51.29
2018-05-04T02:28:14.256Z,51.2
2018-05-04T02:28:54.788Z,51.2
2018-05-04T02:29:35.311Z,51.29
2018-05-04T02:30:15.838Z,51.29
2018-05-04T02:30:56.364Z,51.48
2018-05-04T02:31:36.887Z,51.39
2018-05-04T02:32:17.421Z,51.01
2018-05-04T02:32:57.964Z,51.48
2018-05-04T02:33:38.475Z,51.58
2018-05-04T02:34:19.002Z,51.39
2018-05-04T02:34:59.529Z,51.29
2018-05-04T02:35:40.058Z,51.2
2018-05-04T02:36:20.585Z,51.1
2018-05-04T02:37:01.112Z,51.29
2018-05-04T02:37:41.644Z,51.29
2018-05-04T02:38:22.171Z,51.39
2018-05-04T02:39:03.652Z,51.29
2018-05-04T02:39:44.171Z,51.48
2018-05-04T02:40:24.671Z,51.39
2018-05-04T02:41:05.172Z,51.2
2018-05-04T02:41:45.695Z,51.2
2018-05-04T02:42:26.188Z,51.39
2018-05-04T02:43:06.723Z,51.39
2018-05-04T02:43:47.209Z,51.39
2018-05-04T02:44:27.735Z,51.29
2018-05-04T02:45:08.257Z,51.39
2018-05-04T02:45:48.786Z,51.39
2018-05-04T02:46:29.312Z,51.29
2018-05-04T02:47:09.847Z,51.2
2018-05-04T02:47:50.376Z,51.32
2018-05-04T02:48:30.899Z,51.2
2018-05-04T02:49:11.422Z,51.22
2018-05-04T02:49:51.949Z,51.2
2018-05-04T02:50:32.480Z,50.84
2018-05-04T02:51:13.007Z,51.01
2018-05-04T02:51:53.553Z,50.84
2018-05-04T02:52:34.039Z,51.01
2018-05-04T02:53:14.554Z,50.81
2018-05-04T02:53:55.077Z,51.03
2018-05-04T02:54:35.598Z,50.56
2018-05-04T02:55:16.126Z,50.46
2018-05-04T02:55:56.648Z,50.84
2018-05-04T02:56:37.186Z,50.84
2018-05-04T02:57:17.717Z,50.74
2018-05-04T02:57:58.242Z,50.84
2018-05-04T02:58:38.765Z,50.74
2018-05-04T02:59:19.538Z,50.84
2018-05-04T03:00:00.075Z,50.65
2018-05-04T03:00:40.591Z,50.65
2018-05-04T03:01:21.120Z,50.74
2018-05-04T03:02:02.380Z,50.74
2018-05-04T03:02:42.171Z,50.74
2018-05-04T03:03:22.703Z,50.74
2018-05-04T03:04:03.229Z,50.74
2018-05-04T03:04:43.759Z,50.74
2018-05-04T03:05:24.285Z,50.74
2018-05-04T03:06:04.817Z,50.74
2018-05-04T03:06:46.152Z,50.65
2018-05-04T03:07:26.679Z,50.74
2018-05-04T03:08:07.227Z,50.74
2018-05-04T03:08:47.720Z,50.65
2018-05-04T03:09:28.256Z,50.74
2018-05-04T03:10:08.781Z,50.74
2018-05-04T03:10:49.324Z,50.74
2018-05-04T03:11:29.849Z,50.74
2018-05-04T03:12:10.343Z,50.74
2018-05-04T03:12:50.869Z,51.03
2018-05-04T03:13:31.351Z,50.74
2018-05-04T03:14:11.829Z,50.93
2018-05-04T03:14:52.336Z,50.74
2018-05-04T03:15:32.818Z,50.74
2018-05-04T03:16:13.342Z,50.74
2018-05-04T03:16:53.820Z,50.74
2018-05-04T03:17:34.361Z,50.74
2018-05-04T03:18:14.814Z,50.77
2018-05-04T03:18:55.400Z,50.93
2018-05-04T03:19:35.885Z,50.93
2018-05-04T03:20:16.450Z,50.96
2018-05-04T03:20:56.910Z,50.96
2018-05-04T03:21:37.518Z,50.93
2018-05-04T03:22:18.031Z,50.93
2018-05-04T03:22:58.525Z,50.74
2018-05-04T03:23:40.297Z,50.74
2018-05-04T03:24:21.262Z,50.74
2018-05-04T03:25:01.792Z,50.56
2018-05-04T03:25:42.397Z,50.67
2018-05-04T03:26:22.781Z,50.74
2018-05-04T03:27:03.354Z,50.67
2018-05-04T03:27:44.168Z,50.74
2018-05-04T03:28:24.728Z,50.74
2018-05-04T03:29:05.463Z,50.65
2018-05-04T03:29:46.044Z,50.65
2018-05-04T03:30:26.791Z,50.93
2018-05-04T03:31:07.087Z,50.46
2018-05-04T03:31:47.588Z,50.67
2018-05-04T03:32:28.067Z,50.67
2018-05-04T03:33:08.822Z,50.56
2018-05-04T03:33:49.548Z,51.13
2018-05-04T03:34:30.046Z,50.87
2018-05-04T03:35:11.649Z,50.58
2018-05-04T03:35:53.018Z,50.56
2018-05-04T03:36:32.980Z,50.77
2018-05-04T03:37:13.476Z,50.58
2018-05-04T03:37:54.888Z,50.84
2018-05-04T03:38:34.458Z,50.65
2018-05-04T03:39:15.005Z,50.87
2018-05-04T03:39:55.525Z,50.74
2018-05-04T03:40:37.757Z,50.84
2018-05-04T03:41:18.273Z,50.87
2018-05-04T03:41:58.890Z,50.84
2018-05-04T03:42:39.395Z,50.56
2018-05-04T03:43:20.116Z,50.74
2018-05-04T03:44:00.795Z,51.03
2018-05-04T03:44:41.447Z,50.87
2018-05-04T03:45:22.700Z,51.03
2018-05-04T03:46:03.582Z,50.84
2018-05-04T03:46:44.893Z,51.13
2018-05-04T03:47:24.550Z,51.22
2018-05-04T03:48:05.708Z,51.13
2018-05-04T03:48:46.220Z,50.84
2018-05-04T03:49:26.711Z,51.25
2018-05-04T03:50:07.246Z,51.32
2018-05-04T03:50:47.738Z,51.22
2018-05-04T03:51:28.279Z,51.42
2018-05-04T03:52:08.878Z,51.51
2018-05-04T03:52:49.277Z,51.13
2018-05-04T03:53:29.810Z,51.32
2018-05-04T03:54:10.314Z,51.42
2018-05-04T03:54:51.017Z,51.32
2018-05-04T03:55:31.554Z,51.61
2018-05-04T03:56:12.056Z,51.42
2018-05-04T03:56:52.556Z,51.22
2018-05-04T03:57:33.075Z,51.03
2018-05-04T03:58:13.591Z,51.42
2018-05-04T03:58:55.888Z,51.42
2018-05-04T03:59:35.475Z,51.22
2018-05-04T04:00:15.967Z,51.42
2018-05-04T04:00:56.494Z,51.42
2018-05-04T04:01:37.017Z,51.22
2018-05-04T04:02:17.509Z,51.42
2018-05-04T04:02:58.001Z,51.51
2018-05-04T04:03:38.517Z,51.42
2018-05-04T04:04:19.015Z,51.42
2018-05-04T04:04:59.502Z,51.32
2018-05-04T04:05:40.011Z,51.51
2018-05-04T04:06:20.520Z,51.42
2018-05-04T04:07:01.036Z,51.03
2018-05-04T04:07:41.552Z,51.22
2018-05-04T04:08:22.049Z,51.22
2018-05-04T04:09:02.541Z,51.32
2018-05-04T04:09:43.046Z,51.32
2018-05-04T04:10:25.396Z,51.22
2018-05-04T04:11:05.893Z,51.13
2018-05-04T04:11:45.478Z,51.13
2018-05-04T04:12:25.951Z,51.32
2018-05-04T04:13:06.471Z,51.32
2018-05-04T04:13:47.042Z,51.42
2018-05-04T04:14:27.567Z,51.42
2018-05-04T04:15:08.124Z,51.22
2018-05-04T04:15:48.542Z,51.32
2018-05-04T04:16:29.045Z,51.22
2018-05-04T04:17:09.544Z,50.93
2018-05-04T04:17:50.036Z,51.13
2018-05-04T04:18:30.542Z,50.84
2018-05-04T04:19:11.066Z,51.03
2018-05-04T04:19:51.572Z,50.96
2018-05-04T04:20:32.059Z,50.56
2018-05-04T04:21:12.588Z,50.87
2018-05-04T04:21:53.108Z,50.87
2018-05-04T04:22:33.641Z,50.77
2018-05-04T04:23:14.166Z,50.77
2018-05-04T04:23:54.693Z,50.93
2018-05-04T04:24:35.218Z,50.58
2018-05-04T04:25:15.751Z,50.58
2018-05-04T04:25:56.274Z,50.93
2018-05-04T04:26:36.798Z,50.96
2018-05-04T04:27:17.306Z,50.96
2018-05-04T04:27:57.818Z,50.96
2018-05-04T04:28:38.352Z,50.67
2018-05-04T04:29:18.886Z,50.58
2018-05-04T04:29:59.417Z,50.67
2018-05-04T04:30:40.895Z,50.77
2018-05-04T04:31:20.473Z,50.77
2018-05-04T04:32:01.005Z,50.77
2018-05-04T04:32:41.519Z,50.67
2018-05-04T04:33:22.038Z,50.67
2018-05-04T04:34:02.552Z,50.58
2018-05-04T04:34:44.038Z,50.58
2018-05-04T04:35:24.542Z,50.38
2018-05-04T04:36:05.049Z,50.77
2018-05-04T04:36:45.584Z,50.38
2018-05-04T04:37:26.897Z,50.48
2018-05-04T04:38:07.441Z,50.29
2018-05-04T04:38:47.984Z,50.38
2018-05-04T04:39:28.509Z,50.38
2018-05-04T04:40:09.034Z,50.38
2018-05-04T04:40:49.549Z,50.38
2018-05-04T04:41:30.080Z,50.48
2018-05-04T04:42:10.591Z,50.38
2018-05-04T04:42:51.123Z,50.29
2018-05-04T04:43:31.642Z,50.29
2018-05-04T04:44:12.167Z,50.29
2018-05-04T04:44:52.693Z,50.38
2018-05-04T04:45:33.253Z,50.38
2018-05-04T04:46:13.735Z,50.48
2018-05-04T04:46:54.259Z,50.38
2018-05-04T04:47:34.787Z,50.32
2018-05-04T04:48:15.367Z,50.51
2018-05-04T04:48:55.889Z,49.84
2018-05-04T04:49:36.899Z,49.93
2018-05-04T04:50:16.924Z,49.65
2018-05-04T04:50:57.530Z,50.24
2018-05-04T04:51:38.038Z,50.32
2018-05-04T04:52:18.485Z,49.93
2018-05-04T04:52:59.022Z,49.74
2018-05-04T04:53:39.553Z,49.36
2018-05-04T04:54:20.082Z,49.48
2018-05-04T04:55:00.604Z,49.67
2018-05-04T04:55:41.129Z,49.57
2018-05-04T04:56:21.659Z,49.67
2018-05-04T04:57:02.188Z,49.76
2018-05-04T04:57:42.716Z,49.96
2018-05-04T04:58:23.244Z,49.86
2018-05-04T04:59:04.029Z,49.96
2018-05-04T04:59:44.551Z,50.05
2018-05-04T05:00:25.079Z,49.67
2018-05-04T05:01:05.611Z,49.67
2018-05-04T05:01:46.138Z,49.57
2018-05-04T05:02:29.358Z,49.29
2018-05-04T05:03:09.882Z,49.38
2018-05-04T05:03:50.411Z,49.57
2018-05-04T05:04:30.945Z,49.41
2018-05-04T05:05:11.477Z,49.31
2018-05-04T05:05:52.005Z,49.12
2018-05-04T05:06:32.601Z,49.31
2018-05-04T05:07:13.162Z,49.41
2018-05-04T05:07:53.699Z,49.02
2018-05-04T05:08:34.258Z,48.74
2018-05-04T05:09:14.837Z,48.95
2018-05-04T05:09:55.362Z,49.05
2018-05-04T05:10:35.894Z,49.05
2018-05-04T05:11:16.418Z,49.15
2018-05-04T05:11:56.949Z,48.76
2018-05-04T05:12:38.135Z,48.76
2018-05-04T05:13:18.656Z,48.66
2018-05-04T05:13:59.178Z,48.66
2018-05-04T05:14:39.704Z,48.47
2018-05-04T05:15:20.255Z,48.57
2018-05-04T05:16:00.784Z,48.4
2018-05-04T05:16:41.906Z,48.69
2018-05-04T05:17:21.836Z,48.4
2018-05-04T05:18:02.377Z,48.4
2018-05-04T05:18:42.905Z,48.3
2018-05-04T05:19:23.433Z,48.4
2018-05-04T05:20:04.167Z,48.4
2018-05-04T05:20:44.692Z,48.11
2018-05-04T05:21:25.226Z,47.82
2018-05-04T05:22:05.805Z,47.94
2018-05-04T05:22:46.282Z,47.94
2018-05-04T05:23:26.794Z,47.75
2018-05-04T05:24:07.297Z,47.85
2018-05-04T05:24:47.804Z,47.66
2018-05-04T05:25:28.304Z,47.66
2018-05-04T05:26:08.821Z,47.85
2018-05-04T05:26:49.525Z,47.39
2018-05-04T05:27:29.935Z,47.3
2018-05-04T05:28:10.469Z,47
2018-05-04T05:28:52.407Z,47.2
2018-05-04T05:29:32.528Z,47.2
2018-05-04T05:30:13.072Z,47.13
2018-05-04T05:30:53.558Z,46.64
2018-05-04T05:31:34.003Z,46.74
2018-05-04T05:32:14.530Z,46.84
2018-05-04T05:32:55.142Z,46.64
2018-05-04T05:33:35.579Z,46.55
2018-05-04T05:34:16.129Z,46.45
2018-05-04T05:34:56.582Z,46.28
2018-05-04T05:35:37.125Z,46.57
2018-05-04T05:36:17.563Z,46.38
2018-05-04T05:36:58.081Z,46.38
2018-05-04T05:37:38.540Z,46.38
2018-05-04T05:38:19.032Z,46.28
2018-05-04T05:39:00.412Z,46.38
2018-05-04T05:39:40.058Z,46.47
2018-05-04T05:40:20.448Z,46.47
2018-05-04T05:41:01.021Z,46.47
2018-05-04T05:41:41.472Z,46.11
2018-05-04T05:42:22.108Z,46.4
2018-05-04T05:43:02.497Z,46.21
2018-05-04T05:43:43.033Z,45.83
2018-05-04T05:44:23.526Z,45.92
2018-05-04T05:45:03.977Z,45.92
2018-05-04T05:45:45.297Z,45.83
2018-05-04T05:46:25.808Z,46.31
2018-05-04T05:47:07.124Z,46.59
2018-05-04T05:47:47.633Z,46.59
2018-05-04T05:48:28.124Z,46.59
2018-05-04T05:49:08.645Z,46.69
2018-05-04T05:49:49.211Z,46.5
2018-05-04T05:50:29.706Z,47.08
2018-05-04T05:51:10.286Z,46.78
2018-05-04T05:51:50.811Z,46.69
2018-05-04T05:52:31.225Z,46.78
2018-05-04T05:53:11.752Z,46.88
2018-05-04T05:53:52.301Z,46.78
2018-05-04T05:54:32.835Z,46.88
2018-05-04T05:55:13.213Z,46.5
2018-05-04T05:55:53.801Z,46.59
2018-05-04T05:56:34.216Z,46.59
2018-05-04T05:57:14.745Z,46.5
2018-05-04T05:57:55.919Z,46.69
2018-05-04T05:58:36.133Z,46.78
2018-05-04T05:59:17.569Z,46.88
2018-05-04T05:59:58.063Z,46.33
2018-05-04T06:00:39.203Z,46.42
2018-05-04T06:01:20.115Z,45.46
2018-05-04T06:02:00.615Z,45.48
2018-05-04T06:02:41.916Z,44.83
2018-05-04T06:03:21.572Z,44.56
2018-05-04T06:04:02.210Z,44.08
2018-05-04T06:04:42.634Z,44.01
2018-05-04T06:05:23.125Z,43.62
2018-05-04T06:06:03.569Z,43.35
2018-05-04T06:06:44.080Z,43.35
2018-05-04T06:07:24.970Z,43.26
2018-05-04T06:08:06.105Z,42.99
2018-05-04T06:08:46.676Z,42.79
2018-05-04T06:09:27.286Z,43.08
2018-05-04T06:10:07.702Z,43.35
2018-05-04T06:10:48.250Z,43.84
2018-05-04T06:11:28.670Z,43.84
2018-05-04T06:12:09.179Z,44.22
2018-05-04T06:12:49.699Z,44.12
2018-05-04T06:13:30.250Z,44.1
2018-05-04T06:14:10.698Z,44.97
2018-05-04T06:14:51.209Z,44.78
2018-05-04T06:15:31.645Z,44.68
2018-05-04T06:16:12.164Z,44.68
2018-05-04T06:16:52.683Z,44.39
2018-05-04T06:17:33.168Z,45.07
2018-05-04T06:18:13.683Z,44.87
2018-05-04T06:18:54.183Z,45.17
2018-05-04T06:19:34.660Z,45.24
2018-05-04T06:20:15.217Z,45.34
2018-05-04T06:20:55.669Z,45.45
2018-05-04T06:21:36.226Z,45.17
2018-05-04T06:22:16.712Z,45.07
2018-05-04T06:22:57.184Z,44.87
2018-05-04T06:23:37.728Z,44.87
2018-05-04T06:24:18.241Z,44.78
2018-05-04T06:24:58.841Z,45.17
2018-05-04T06:25:39.321Z,45.14
2018-05-04T06:26:19.760Z,45.17
2018-05-04T06:27:00.293Z,45.17
2018-05-04T06:27:40.900Z,45.17
2018-05-04T06:28:21.527Z,45.53
2018-05-04T06:29:02.887Z,45.72
2018-05-04T06:29:44.328Z,45.43
2018-05-04T06:30:25.430Z,45.43
2018-05-04T06:31:05.380Z,45.72
2018-05-04T06:31:45.877Z,45.53
2018-05-04T06:32:26.414Z,45.53
2018-05-04T06:33:06.885Z,45.62
2018-05-04T06:33:47.353Z,45.34
2018-05-04T06:34:27.848Z,45.34
2018-05-04T06:35:08.354Z,45.43
2018-05-04T06:35:48.806Z,45.34
2018-05-04T06:36:29.328Z,45.34
2018-05-04T06:37:09.762Z,45.17
2018-05-04T06:37:50.274Z,44.95
2018-05-04T06:38:30.759Z,45.17
2018-05-04T06:39:11.248Z,45.07
2018-05-04T06:39:51.741Z,44.87
2018-05-04T06:40:32.271Z,44.78
2018-05-04T06:41:12.739Z,44.78
2018-05-04T06:41:53.280Z,44.9
2018-05-04T06:42:33.798Z,44.8
2018-05-04T06:43:14.270Z,45
2018-05-04T06:43:54.768Z,44.7
2018-05-04T06:44:35.268Z,44.87
2018-05-04T06:45:15.765Z,44.78
2018-05-04T06:45:56.238Z,45.07
2018-05-04T06:46:36.736Z,45.17
2018-05-04T06:47:17.249Z,45.26
2018-05-04T06:47:57.768Z,45.26
2018-05-04T06:48:38.252Z,45.65
2018-05-04T06:49:18.736Z,45.62
2018-05-04T06:49:59.224Z,45.24
2018-05-04T06:50:39.725Z,45.62
2018-05-04T06:51:20.232Z,45.72
2018-05-04T06:52:00.738Z,46.01
2018-05-04T06:52:41.227Z,45.92
2018-05-04T06:53:21.781Z,46.2
2018-05-04T06:54:02.219Z,46.11
2018-05-04T06:54:42.711Z,46.01
2018-05-04T06:55:23.215Z,46.49
2018-05-04T06:56:05.437Z,46.4
2018-05-04T06:56:45.162Z,46.4
2018-05-04T06:57:25.633Z,46.2
2018-05-04T06:58:06.145Z,46.4
2018-05-04T06:58:46.628Z,46.08
2018-05-04T06:59:27.195Z,46.2
2018-05-04T07:00:07.631Z,46.3
2018-05-04T07:00:48.936Z,46.49
2018-05-04T07:01:29.454Z,46.11
2018-05-04T07:02:09.975Z,46.2
2018-05-04T07:02:50.466Z,46.2
2018-05-04T07:03:30.990Z,46.11
2018-05-04T07:04:11.468Z,46.2
2018-05-04T07:04:51.957Z,46.01
2018-05-04T07:05:32.432Z,46.2
2018-05-04T07:06:12.910Z,46.47
2018-05-04T07:06:53.404Z,46.18
2018-05-04T07:07:33.899Z,46.47
2018-05-04T07:08:14.393Z,46.47
2018-05-04T07:08:54.959Z,46.56
2018-05-04T07:09:35.659Z,46.76
2018-05-04T07:10:16.142Z,46.73
2018-05-04T07:10:57.337Z,46.55
2018-05-04T07:11:37.822Z,46.93
2018-05-04T07:12:18.328Z,47.22
2018-05-04T07:12:58.823Z,47.03
2018-05-04T07:13:39.345Z,47.31
2018-05-04T07:14:19.932Z,47.41
2018-05-04T07:15:00.422Z,47.22
2018-05-04T07:15:40.896Z,47.22
2018-05-04T07:16:21.385Z,47.31
2018-05-04T07:17:01.888Z,47.22
2018-05-04T07:17:42.353Z,47.19
2018-05-04T07:18:22.784Z,47.39
2018-05-04T07:19:03.938Z,47.39
2018-05-04T07:19:44.612Z,47.67
2018-05-04T07:20:25.133Z,47.39
2018-05-04T07:21:05.849Z,47.49
2018-05-04T07:21:46.338Z,47.39
2018-05-04T07:22:26.853Z,47.49
2018-05-04T07:23:07.368Z,47.67
2018-05-04T07:23:47.943Z,47.58
2018-05-04T07:24:28.462Z,47.75
2018-05-04T07:25:09.443Z,47.97
2018-05-04T07:25:49.446Z,48.03
2018-05-04T07:26:29.960Z,47.77
2018-05-04T07:27:10.531Z,47.29
2018-05-04T07:27:51.005Z,47.49
2018-05-04T07:28:31.482Z,47.29
2018-05-04T07:29:12.038Z,47.1
2018-05-04T07:29:52.575Z,47.49
2018-05-04T07:30:33.120Z,47.1
2018-05-04T07:31:13.631Z,46.64
2018-05-04T07:31:54.092Z,47.12
2018-05-04T07:32:34.659Z,46.45
2018-05-04T07:33:15.119Z,46.55
2018-05-04T07:33:55.601Z,46.35
2018-05-04T07:34:36.212Z,46.08
2018-05-04T07:35:16.713Z,45.41
2018-05-04T07:35:57.160Z,45.43
2018-05-04T07:36:37.646Z,45.14
2018-05-04T07:37:18.781Z,44.95
2018-05-04T07:37:59.280Z,44.85
2018-05-04T07:38:39.762Z,44.97
2018-05-04T07:39:20.255Z,45.07
2018-05-04T07:40:00.808Z,44.97
2018-05-04T07:40:41.289Z,44.68
2018-05-04T07:41:21.814Z,44.78
2018-05-04T07:42:02.304Z,44.7
2018-05-04T07:42:42.809Z,44.9
2018-05-04T07:43:23.327Z,44.8
2018-05-04T07:44:03.805Z,44.6
2018-05-04T07:44:44.293Z,44.42
2018-05-04T07:45:24.822Z,45.18
2018-05-04T07:46:05.384Z,45
2018-05-04T07:46:45.824Z,45
2018-05-04T07:47:26.344Z,44.9
2018-05-04T07:48:06.899Z,45
2018-05-04T07:48:47.413Z,44.9
2018-05-04T07:49:28.653Z,45.09
2018-05-04T07:50:09.118Z,44.9
2018-05-04T07:50:49.621Z,44.8
2018-05-04T07:51:30.134Z,44.8
2018-05-04T07:52:10.684Z,44.92
2018-05-04T07:52:51.218Z,45.09
2018-05-04T07:53:31.726Z,44.73
2018-05-04T07:56:51.192Z,44.73
2018-05-04T07:57:31.690Z,44.05
2018-05-04T07:58:12.179Z,44.26
2018-05-04T07:58:53.213Z,44.09
2018-05-04T07:59:33.479Z,43.05
2018-05-04T08:00:13.913Z,43.05
2018-05-04T08:00:54.429Z,42.13
2018-05-04T08:01:34.909Z,41.2
2018-05-04T08:02:15.373Z,39.95
2018-05-04T08:02:55.923Z,39.98
2018-05-04T08:03:37.066Z,39.41
2018-05-04T08:04:17.570Z,38.65
2018-05-04T08:04:58.061Z,38.48
2018-05-04T08:05:38.570Z,37.93
2018-05-04T08:06:19.075Z,36.8
2018-05-04T08:06:59.618Z,35.9
2018-05-04T08:07:40.709Z,34.75
2018-05-04T08:08:20.643Z,34.77
2018-05-04T08:09:01.151Z,34.29
2018-05-04T08:09:41.671Z,34.01
2018-05-04T08:10:22.294Z,33.94
2018-05-04T08:11:02.730Z,33.56
2018-05-04T08:11:43.264Z,33.67
2018-05-04T08:12:23.814Z,33.02
2018-05-04T08:13:04.335Z,32.27
2018-05-04T08:13:44.870Z,32.27
2018-05-04T08:14:25.398Z,32.18
2018-05-04T08:15:05.931Z,31.53
2018-05-04T08:15:46.470Z,31.35
2018-05-04T08:16:26.985Z,31.64
2018-05-04T08:17:07.519Z,32.04
2018-05-04T08:17:48.060Z,32.04
2018-05-04T08:18:28.584Z,32.33
2018-05-04T08:19:09.119Z,32.62
2018-05-04T08:19:49.656Z,32.72
2018-05-04T08:20:30.189Z,32.62
2018-05-04T08:21:10.725Z,33.31
2018-05-04T08:21:51.852Z,32.92
2018-05-04T08:22:33.716Z,33.31
2018-05-04T08:23:13.611Z,33.79
2018-05-04T08:23:54.137Z,34.36
2018-05-04T08:24:34.669Z,34.83
2018-05-04T08:25:15.989Z,35.82
2018-05-04T08:25:56.530Z,34.87
2018-05-04T08:26:37.058Z,34.58
2018-05-04T08:27:17.625Z,34.47
2018-05-04T08:27:58.114Z,34.95
2018-05-04T08:28:38.644Z,35.62
2018-05-04T08:29:19.176Z,36.09
2018-05-04T08:29:59.708Z,35.82
2018-05-04T08:30:40.243Z,35.72
2018-05-04T08:31:20.779Z,35.99
2018-05-04T08:32:01.314Z,36.19
2018-05-04T08:32:41.835Z,35.88
2018-05-04T08:33:22.363Z,36.08
2018-05-04T08:34:03.856Z,36.39
2018-05-04T08:34:44.385Z,35.72
2018-05-04T08:35:25.008Z,34.01
2018-05-04T08:36:05.456Z,30.69
2018-05-04T08:36:45.990Z,28.09
2018-05-04T08:37:26.524Z,25.84
2018-05-04T08:38:07.056Z,24.11
2018-05-04T08:38:47.592Z,22.67
2018-05-04T08:39:28.124Z,21.62
2018-05-04T08:40:08.658Z,21.15
2018-05-04T08:40:49.302Z,20.59
2018-05-04T08:41:29.725Z,19.74
2018-05-04T08:42:10.258Z,19.56
2018-05-04T08:42:50.790Z,19.09
2018-05-04T08:43:31.318Z,18.52
2018-05-04T08:44:11.864Z,18.26
2018-05-04T08:44:52.399Z,18.17
2018-05-04T08:45:33.725Z,19.14
2018-05-04T08:46:14.229Z,20.71
2018-05-04T08:46:54.062Z,21.61